Time;durP1;ratioP1;P1;durP2;ratioP2;P2;SDS_P1;SDS_P2;PMS_P1;PMS_P2;Temp;Humidity;BMP_temperature;BMP_pressure;BME280_temperature;BME280_humidity;BME280_pressure;Samples;Min_cycle;Max_cycle;Signal;HPM_P1;HPM_P2
2021/07/21 00:00:25;;;;;;;12.95;3.10;;;;;;;18.14;100.00;99887.58;1760811;79;21530;-40
2021/07/21 00:02:52;;;;;;;3.37;3.05;;;;;;;18.12;100.00;99888.14;1762491;79;20942;-40
2021/07/21 00:05:19;;;;;;;3.60;3.10;;;;;;;18.09;100.00;99879.98;1734500;80;21039;-40
2021/07/21 00:07:46;;;;;;;6.65;2.87;;;;;;;18.08;100.00;99887.46;1778780;80;21028;-39
2021/07/21 00:10:17;;;;;;;9.45;2.87;;;;;;;18.06;100.00;99878.41;1750421;80;20979;-41
2021/07/21 00:15:33;;;;;;;24.70;4.87;;;;;;;18.06;100.00;99888.88;1789728;80;20989;-40
2021/07/21 00:18:02;;;;;;;19.15;4.62;;;;;;;18.07;100.00;99896.25;1754573;80;21121;-39
2021/07/21 00:20:31;;;;;;;14.90;3.70;;;;;;;18.07;100.00;99891.02;1744556;80;21018;-41
2021/07/21 00:22:58;;;;;;;23.27;4.10;;;;;;;18.08;100.00;99893.56;1757316;80;21053;-39
2021/07/21 00:25:25;;;;;;;20.40;3.70;;;;;;;18.06;100.00;99886.27;1753798;81;20939;-40
2021/07/21 00:27:51;;;;;;;9.23;3.62;;;;;;;18.04;100.00;99889.41;1786080;78;20986;-39
2021/07/21 00:30:19;;;;;;;9.70;3.60;;;;;;;18.04;100.00;99885.96;1786189;80;21293;-39
2021/07/21 00:32:45;;;;;;;7.42;3.33;;;;;;;18.04;100.00;99881.55;1745268;80;20996;-38
2021/07/21 00:35:16;;;;;;;14.13;3.67;;;;;;;18.05;100.00;99878.00;1763722;80;20955;-40
2021/07/21 00:37:43;;;;;;;9.63;3.80;;;;;;;18.07;100.00;99877.47;1771530;80;20990;-38
2021/07/21 00:40:12;;;;;;;4.70;3.52;;;;;;;18.08;100.00;99874.37;1734313;80;20968;-39
2021/07/21 00:42:40;;;;;;;16.40;4.00;;;;;;;18.05;100.00;99868.83;1776648;79;21006;-39
2021/07/21 00:45:08;;;;;;;4.25;3.45;;;;;;;18.06;100.00;99863.14;1756447;80;21069;-38
2021/07/21 00:47:35;;;;;;;12.63;4.08;;;;;;;18.06;100.00;99861.39;1738044;80;21069;-37
2021/07/21 00:50:04;;;;;;;6.55;3.40;;;;;;;18.06;100.00;99850.05;1721525;81;21012;-38
2021/07/21 00:52:37;;;;;;;12.15;3.35;;;;;;;18.07;100.00;99844.73;1743049;81;21116;-38
2021/07/21 00:55:07;;;;;;;8.73;3.80;;;;;;;18.06;100.00;99824.73;1738317;82;21782;-39
2021/07/21 00:57:33;;;;;;;8.78;3.92;;;;;;;18.05;100.00;99826.11;1767864;79;21063;-40
2021/07/21 01:00:00;;;;;;;9.93;3.58;;;;;;;18.01;100.00;99829.38;1754144;80;21007;-38
2021/07/21 01:02:27;;;;;;;7.15;4.25;;;;;;;17.99;100.00;99842.98;1748212;80;21057;-38
2021/07/21 01:04:54;;;;;;;19.45;3.95;;;;;;;18.00;100.00;99860.38;1760952;80;20998;-38
2021/07/21 01:07:21;;;;;;;7.17;4.03;;;;;;;17.98;100.00;99860.12;1760327;81;21138;-38
2021/07/21 01:09:48;;;;;;;6.55;4.15;;;;;;;17.96;100.00;99852.34;1749209;80;20975;-39
2021/07/21 01:12:20;;;;;;;5.65;4.53;;;;;;;17.96;100.00;99847.10;1760704;80;20942;-39
2021/07/21 01:15:01;;;;;;;11.33;5.35;;;;;;;17.95;100.00;99848.04;1734818;81;20915;-38
2021/07/21 01:17:40;;;;;;;8.10;4.75;;;;;;;17.95;100.00;99849.34;1752412;80;20958;-38
2021/07/21 01:20:49;;;;;;;7.05;4.30;;;;;;;17.96;100.00;99849.72;1743792;80;21337;-39
2021/07/21 01:23:46;;;;;;;9.15;4.72;;;;;;;17.95;100.00;99838.88;1752254;81;21644;-38
2021/07/21 01:26:25;;;;;;;7.80;4.80;;;;;;;17.96;100.00;99832.70;1712971;80;21035;-38
2021/07/21 01:28:52;;;;;;;6.15;5.37;;;;;;;17.97;100.00;99817.37;1741414;80;20963;-39
2021/07/21 01:31:25;;;;;;;6.25;4.70;;;;;;;17.97;100.00;99808.20;1740056;80;20956;-39
2021/07/21 01:33:51;;;;;;;10.65;5.03;;;;;;;17.95;100.00;99806.15;1755709;80;21279;-39
2021/07/21 01:36:28;;;;;;;5.25;4.80;;;;;;;17.96;100.00;99810.45;1732054;80;21135;-39
2021/07/21 01:39:03;;;;;;;8.45;5.70;;;;;;;17.93;100.00;99811.95;1725230;80;21053;-39
2021/07/21 01:41:28;;;;;;;9.63;4.92;;;;;;;17.91;100.00;99817.26;1712774;82;21117;-39
2021/07/21 01:44:01;;;;;;;10.93;4.65;;;;;;;17.89;100.00;99834.01;1754852;80;21552;-39
2021/07/21 01:46:28;;;;;;;6.10;5.28;;;;;;;17.88;100.00;99849.34;1757932;80;21109;-39
2021/07/21 01:48:57;;;;;;;10.25;5.03;;;;;;;17.91;100.00;99855.70;1710180;80;21004;-40
2021/07/21 01:51:27;;;;;;;7.62;5.20;;;;;;;17.94;100.00;99864.68;1753348;80;21515;-39
2021/07/21 01:53:55;;;;;;;5.50;5.00;;;;;;;18.01;100.00;99865.17;1729617;80;20943;-39
2021/07/21 01:56:22;;;;;;;29.42;5.95;;;;;;;18.08;100.00;99865.20;1754788;80;21050;-39
2021/07/21 01:58:52;;;;;;;19.32;6.25;;;;;;;18.16;100.00;99860.83;1744303;80;21204;-39
2021/07/21 02:01:20;;;;;;;27.10;7.60;;;;;;;18.22;100.00;99865.69;1720436;81;22165;-39
2021/07/21 02:03:47;;;;;;;33.38;6.72;;;;;;;18.29;100.00;99886.64;1730251;80;21086;-39
2021/07/21 02:06:15;;;;;;;61.98;8.13;;;;;;;18.35;100.00;99922.98;1753924;80;21091;-39
2021/07/21 02:08:43;;;;;;;47.48;6.20;;;;;;;18.43;100.00;99907.26;1781512;80;21370;-38
2021/07/21 02:11:11;;;;;;;10.90;3.98;;;;;;;18.46;100.00;99870.38;1756916;80;21178;-39
2021/07/21 02:13:38;;;;;;;13.35;4.65;;;;;;;18.42;100.00;99867.58;1770960;81;20884;-39
2021/07/21 02:16:19;;;;;;;9.53;3.05;;;;;;;18.38;100.00;99864.30;1764014;80;20970;-39
2021/07/21 02:18:51;;;;;;;3.42;2.90;;;;;;;18.38;100.00;99838.95;1770386;80;20946;-40
2021/07/21 02:21:16;;;;;;;7.28;2.90;;;;;;;18.36;100.00;99815.08;1752861;80;20992;-39
2021/07/21 02:23:43;;;;;;;7.75;2.83;;;;;;;18.34;100.00;99816.50;1747978;80;21117;-40
2021/07/21 02:26:28;;;;;;;5.67;3.27;;;;;;;18.35;100.00;99803.78;1716325;81;21050;-40
2021/07/21 02:28:56;;;;;;;10.50;3.42;;;;;;;18.41;100.00;99792.55;1749468;80;21131;-39
2021/07/21 02:31:49;;;;;;;18.52;3.95;;;;;;;18.47;100.00;99775.98;1767980;80;21498;-39
2021/07/21 02:34:16;;;;;;;10.28;3.52;;;;;;;18.49;100.00;99756.22;1767425;81;21145;-39
2021/07/21 02:36:43;;;;;;;14.55;3.05;;;;;;;18.51;100.00;99763.51;1755384;80;21405;-38
2021/07/21 02:39:11;;;;;;;11.03;3.40;;;;;;;18.51;100.00;99790.56;1768499;80;21014;-40
2021/07/21 02:41:38;;;;;;;5.53;3.42;;;;;;;18.56;100.00;99804.67;1730647;81;21206;-39
2021/07/21 02:44:06;;;;;;;7.15;3.00;;;;;;;18.61;100.00;99796.08;1770536;80;20969;-39
2021/07/21 02:46:33;;;;;;;8.75;3.33;;;;;;;18.63;100.00;99788.96;1739212;80;21053;-39
2021/07/21 02:49:00;;;;;;;6.10;3.10;;;;;;;18.66;100.00;99814.12;1766579;80;21128;-40
2021/07/21 02:51:57;;;;;;;6.62;3.65;;;;;;;18.71;100.00;99826.95;1757897;80;20986;-39
2021/07/21 02:54:49;;;;;;;7.25;3.40;;;;;;;18.74;100.00;99812.33;1722011;80;21648;-39
2021/07/21 02:57:24;;;;;;;8.00;3.33;;;;;;;18.76;100.00;99815.69;1760302;80;22217;-39
2021/07/21 02:59:53;;;;;;;3.87;2.75;;;;;;;18.81;100.00;99808.38;1709102;82;21824;-39
2021/07/21 03:02:23;;;;;;;7.95;3.52;;;;;;;18.84;100.00;99800.80;1733132;81;21044;-40
2021/07/21 03:04:51;;;;;;;8.23;3.22;;;;;;;18.84;100.00;99802.11;1767216;81;21101;-39
2021/07/21 03:07:20;;;;;;;4.45;3.15;;;;;;;18.84;100.00;99808.20;1764588;79;20978;-40
2021/07/21 03:09:48;;;;;;;9.13;3.67;;;;;;;18.89;100.00;99794.33;1759761;81;21052;-39
2021/07/21 03:12:15;;;;;;;5.87;3.00;;;;;;;18.91;100.00;99792.91;1766611;80;21019;-39
2021/07/21 03:14:44;;;;;;;6.45;3.20;;;;;;;18.96;100.00;99806.59;1749039;80;21714;-39
2021/07/21 03:17:13;;;;;;;4.70;3.05;;;;;;;19.01;100.00;99797.13;1745978;80;20872;-39
2021/07/21 03:19:47;;;;;;;4.62;3.37;;;;;;;19.04;100.00;99810.03;1743721;80;20988;-40
2021/07/21 03:22:19;;;;;;;11.53;3.20;;;;;;;19.08;100.00;99815.00;1749543;80;20963;-40
2021/07/21 03:24:47;;;;;;;10.75;3.35;;;;;;;19.12;100.00;99805.16;1747898;80;20943;-41
2021/07/21 03:27:16;;;;;;;8.45;3.52;;;;;;;19.15;100.00;99799.70;1732084;80;21816;-40
2021/07/21 03:29:45;;;;;;;8.35;3.67;;;;;;;19.19;100.00;99801.19;1732622;80;20997;-39
2021/07/21 03:32:12;;;;;;;10.00;3.65;;;;;;;19.21;100.00;99794.05;1760751;80;21654;-40
2021/07/21 03:34:38;;;;;;;8.73;3.50;;;;;;;19.29;100.00;99794.87;1725655;81;21492;-39
2021/07/21 03:37:05;;;;;;;11.63;3.45;;;;;;;19.35;100.00;99797.09;1682073;80;21502;-39
2021/07/21 03:39:54;;;;;;;9.93;3.57;;;;;;;19.41;100.00;99798.47;1737079;80;21147;-39
2021/07/21 03:42:38;;;;;;;8.70;3.40;;;;;;;19.40;100.00;99808.60;1756795;80;21444;-38
2021/07/21 03:45:10;;;;;;;5.37;3.80;;;;;;;19.40;100.00;99817.78;1757913;80;21433;-39
2021/07/21 03:47:37;;;;;;;3.83;3.08;;;;;;;19.37;100.00;99827.17;1748133;80;20958;-39
2021/07/21 03:50:06;;;;;;;9.00;4.30;;;;;;;19.22;100.00;99839.02;1722123;80;20963;-39
2021/07/21 03:52:35;;;;;;;6.33;3.87;;;;;;;19.14;100.00;99843.93;1736965;80;21305;-40
2021/07/21 03:55:06;;;;;;;8.00;3.80;;;;;;;19.10;100.00;99846.38;1729916;81;20944;-40
2021/07/21 03:57:35;;;;;;;11.08;5.12;;;;;;;19.08;100.00;99866.63;1729383;80;21015;-39
2021/07/21 04:00:01;;;;;;;13.15;4.33;;;;;;;19.07;100.00;99878.87;1727708;80;20904;-39
2021/07/21 04:02:30;;;;;;;9.43;4.72;;;;;;;18.92;100.00;99887.66;1702509;82;21112;-40
2021/07/21 04:04:57;;;;;;;6.75;4.80;;;;;;;18.83;100.00;99906.15;1758696;80;21763;-39
2021/07/21 04:07:23;;;;;;;9.98;4.50;;;;;;;18.78;100.00;99912.98;1733380;80;21660;-40
2021/07/21 04:09:54;;;;;;;5.30;4.60;;;;;;;18.78;100.00;99907.73;1716647;82;21008;-40
2021/07/21 04:12:22;;;;;;;7.60;4.65;;;;;;;18.75;100.00;99932.83;1779996;80;20954;-39
2021/07/21 04:14:51;;;;;;;8.08;4.80;;;;;;;18.75;100.00;99930.66;1741356;80;21146;-40
2021/07/21 04:17:19;;;;;;;6.45;4.28;;;;;;;18.72;100.00;99926.47;1749347;81;21314;-39
2021/07/21 04:19:47;;;;;;;6.42;4.33;;;;;;;18.78;100.00;99934.41;1732671;81;21077;-43
2021/07/21 04:22:13;;;;;;;6.58;4.45;;;;;;;18.79;100.00;99966.23;1735950;81;20950;-38
2021/07/21 04:24:45;;;;;;;22.10;5.33;;;;;;;18.81;100.00;99976.16;1749210;80;21565;-40
2021/07/21 04:27:12;;;;;;;7.62;4.72;;;;;;;18.81;100.00;99977.47;1728806;81;21448;-38
2021/07/21 04:29:41;;;;;;;9.00;4.70;;;;;;;18.83;100.00;99972.14;1758891;81;21981;-39
2021/07/21 04:32:09;;;;;;;22.02;5.50;;;;;;;18.89;100.00;99955.58;1721858;81;21019;-39
2021/07/21 04:34:36;;;;;;;11.75;5.22;;;;;;;18.97;100.00;99948.55;1725339;81;21098;-39
2021/07/21 04:37:04;;;;;;;7.95;4.90;;;;;;;19.01;100.00;99927.79;1758801;81;21073;-40
2021/07/21 04:39:32;;;;;;;10.30;5.33;;;;;;;19.01;100.00;99924.31;1745210;81;21932;-39
2021/07/21 04:42:11;;;;;;;6.37;4.78;;;;;;;19.01;100.00;99920.38;1694167;80;21794;-41
2021/07/21 04:44:40;;;;;;;10.72;4.62;;;;;;;19.01;100.00;99913.82;1724479;82;21516;-39
2021/07/21 04:47:07;;;;;;;5.33;4.80;;;;;;;19.01;100.00;99912.51;1739671;81;20951;-38
2021/07/21 04:49:39;;;;;;;10.72;4.90;;;;;;;18.99;100.00;99913.94;1758226;80;21026;-39
2021/07/21 04:52:08;;;;;;;7.22;5.00;;;;;;;18.98;100.00;99896.52;1719831;81;21644;-40
2021/07/21 04:54:35;;;;;;;11.25;5.05;;;;;;;18.96;100.00;99890.02;1752902;81;21086;-39
2021/07/21 04:57:03;;;;;;;8.30;5.17;;;;;;;18.93;100.00;99899.84;1751613;80;21738;-39
2021/07/21 04:59:34;;;;;;;6.83;5.37;;;;;;;18.92;100.00;99905.56;1730461;81;21034;-41
2021/07/21 05:02:02;;;;;;;10.95;5.12;;;;;;;18.93;100.00;99914.27;1744905;80;21023;-38
2021/07/21 05:04:29;;;;;;;10.80;5.90;;;;;;;18.98;100.00;99911.36;1731301;81;20990;-39
2021/07/21 05:07:04;;;;;;;7.40;5.25;;;;;;;19.03;100.00;99911.48;1756990;81;21176;-39
2021/07/21 05:09:33;;;;;;;9.05;5.22;;;;;;;19.07;100.00;99912.97;1738340;81;21100;-38
2021/07/21 05:12:03;;;;;;;8.88;5.35;;;;;;;19.13;100.00;99931.87;1723141;81;21022;-40
2021/07/21 05:14:32;;;;;;;8.78;6.00;;;;;;;19.17;100.00;99933.37;1723055;81;21011;-40
2021/07/21 05:17:09;;;;;;;7.87;6.35;;;;;;;19.19;100.00;99918.38;1716729;81;20992;-39
2021/07/21 05:19:36;;;;;;;7.62;5.83;;;;;;;19.28;100.00;99930.06;1724026;81;21175;-40
2021/07/21 05:22:05;;;;;;;7.42;6.00;;;;;;;19.37;100.00;99934.75;1723814;81;21011;-40
2021/07/21 05:24:32;;;;;;;6.80;6.10;;;;;;;19.47;100.00;99936.32;1699447;83;20952;-40
2021/07/21 05:26:59;;;;;;;8.30;5.90;;;;;;;19.50;100.00;99937.44;1733781;80;21063;-40
2021/07/21 05:29:28;;;;;;;9.55;6.15;;;;;;;19.49;100.00;99939.20;1727419;80;20921;-40
2021/07/21 05:32:03;;;;;;;9.88;6.58;;;;;;;19.41;100.00;99930.98;1722862;81;21159;-40
2021/07/21 05:34:32;;;;;;;12.68;6.67;;;;;;;19.45;100.00;99935.09;1698480;82;21051;-39
2021/07/21 05:37:18;;;;;;;8.60;7.03;;;;;;;19.47;100.00;99929.77;1733164;81;21481;-40
2021/07/21 05:39:54;;;;;;;10.85;7.15;;;;;;;19.48;100.00;99920.46;1720768;81;20965;-39
2021/07/21 05:42:22;;;;;;;7.90;7.10;;;;;;;19.56;100.00;99923.05;1729895;81;21005;-40
2021/07/21 05:44:49;;;;;;;8.35;7.53;;;;;;;19.60;100.00;99924.08;1728473;81;21141;-38
2021/07/21 05:47:18;;;;;;;12.28;7.50;;;;;;;19.61;100.00;99928.88;1727266;81;20993;-40
2021/07/21 05:49:44;;;;;;;8.85;8.00;;;;;;;19.62;100.00;99950.23;1719640;81;21520;-40
2021/07/21 05:52:13;;;;;;;11.73;8.63;;;;;;;19.66;100.00;99949.09;1719230;81;20977;-39
2021/07/21 05:54:41;;;;;;;10.03;7.70;;;;;;;19.62;100.00;99955.48;1753392;80;20940;-40
2021/07/21 05:57:09;;;;;;;11.38;8.35;;;;;;;19.64;100.00;99960.17;1726458;81;22747;-40
2021/07/21 05:59:37;;;;;;;10.70;9.60;;;;;;;19.66;100.00;99963.53;1735056;82;21486;-40
2021/07/21 06:02:04;;;;;;;10.08;8.85;;;;;;;19.66;100.00;99964.84;1715063;82;21589;-45
2021/07/21 06:04:32;;;;;;;15.05;9.75;;;;;;;19.64;100.00;99968.87;1738022;81;21981;-39
2021/07/21 06:07:08;;;;;;;10.80;9.43;;;;;;;19.66;100.00;99966.98;1706374;82;21563;-39
2021/07/21 06:09:36;;;;;;;11.00;9.80;;;;;;;19.67;100.00;99968.66;1707871;80;21655;-39
2021/07/21 06:12:08;;;;;;;12.65;9.80;;;;;;;19.67;100.00;99977.03;1784130;80;21127;-40
2021/07/21 06:14:35;;;;;;;18.37;9.78;;;;;;;19.69;100.00;99975.14;1789322;80;20966;-40
2021/07/21 06:17:03;;;;;;;23.98;10.13;;;;;;;19.73;100.00;99975.31;1770490;80;21083;-40
2021/07/21 06:19:33;;;;;;;18.95;9.73;;;;;;;19.80;100.00;99956.90;1760802;80;21144;-42
2021/07/21 06:22:04;;;;;;;20.32;10.88;;;;;;;19.85;100.00;99964.48;1774759;80;21778;-42
2021/07/21 06:24:41;;;;;;;17.60;11.70;;;;;;;19.87;100.00;99973.11;1753164;81;20994;-40
2021/07/21 06:27:09;;;;;;;20.77;12.07;;;;;;;19.91;100.00;99975.10;1783250;80;20947;-41
2021/07/21 06:29:37;;;;;;;33.65;12.68;;;;;;;19.93;100.00;99981.09;1752699;80;21550;-40
2021/07/21 06:32:06;;;;;;;21.02;12.63;;;;;;;19.95;100.00;99980.52;1788410;80;20916;-40
2021/07/21 06:34:33;;;;;;;22.35;13.60;;;;;;;19.97;100.00;99976.00;1782477;80;21103;-40
2021/07/21 06:37:01;;;;;;;16.57;11.65;;;;;;;19.91;100.00;99969.84;1753904;80;21017;-40
2021/07/21 06:39:29;;;;;;;14.40;12.88;;;;;;;19.87;100.00;99966.54;1772121;78;21454;-37
2021/07/21 06:41:57;;;;;;;14.80;12.55;;;;;;;19.87;100.00;99959.15;1775932;78;21022;-38
2021/07/21 06:44:24;;;;;;;17.57;12.55;;;;;;;19.87;100.00;99948.64;1777305;78;21905;-39
2021/07/21 06:46:52;;;;;;;13.45;12.15;;;;;;;19.89;100.00;99939.70;1741495;80;21155;-38
2021/07/21 06:49:21;;;;;;;15.90;12.45;;;;;;;19.88;100.00;99936.70;1769492;78;21580;-38
2021/07/21 06:51:47;;;;;;;14.03;11.57;;;;;;;19.87;100.00;99931.58;1754748;78;21297;-40
2021/07/21 06:54:16;;;;;;;15.72;11.50;;;;;;;19.85;100.00;99920.34;1740534;79;20982;-40
2021/07/21 06:57:01;;;;;;;19.52;11.60;;;;;;;19.84;100.00;99912.91;1763711;80;21065;-39
2021/07/21 06:59:46;;;;;;;15.68;11.48;;;;;;;19.84;100.00;99908.15;1768214;79;21123;-40
2021/07/21 07:02:15;;;;;;;17.90;12.18;;;;;;;19.89;100.00;99890.30;1760315;80;20976;-40
2021/07/21 07:04:55;;;;;;;12.10;10.32;;;;;;;19.94;100.00;99880.35;1737637;81;21618;-39
2021/07/21 07:07:40;;;;;;;19.20;12.30;;;;;;;20.00;100.00;99878.63;1764002;79;21017;-39
2021/07/21 07:10:13;;;;;;;16.07;11.60;;;;;;;20.06;100.00;99862.92;1758393;79;20978;-39
2021/07/21 07:12:42;;;;;;;13.55;10.40;;;;;;;20.13;100.00;99860.24;1756028;80;21125;-39
2021/07/21 07:15:11;;;;;;;11.12;10.05;;;;;;;20.18;100.00;99867.33;1767157;79;20958;-39
2021/07/21 07:17:38;;;;;;;11.95;10.80;;;;;;;20.22;100.00;99870.60;1740572;80;21551;-39
2021/07/21 07:20:06;;;;;;;19.20;11.25;;;;;;;20.22;100.00;99879.80;1779954;80;21001;-39
2021/07/21 07:22:33;;;;;;;11.95;10.75;;;;;;;20.26;100.00;99882.58;1782447;79;20856;-39
2021/07/21 07:25:01;;;;;;;13.18;10.90;;;;;;;20.30;100.00;99874.84;1755237;80;20899;-41
2021/07/21 07:27:29;;;;;;;11.57;10.53;;;;;;;20.32;100.00;99890.03;1754378;80;20934;-39
2021/07/21 07:29:56;;;;;;;16.50;10.53;;;;;;;20.37;100.00;99905.04;1782781;80;21021;-40
2021/07/21 07:32:22;;;;;;;45.88;14.18;;;;;;;20.42;100.00;99902.08;1751259;80;21496;-41
2021/07/21 07:34:49;;;;;;;19.42;12.95;;;;;;;20.45;100.00;99899.72;1780871;79;20966;-41
2021/07/21 07:37:15;;;;;;;12.78;11.48;;;;;;;20.50;100.00;99898.92;1727948;80;21787;-39
2021/07/21 07:39:42;;;;;;;17.48;11.63;;;;;;;20.51;100.00;99901.46;1779164;80;21018;-41
2021/07/21 07:42:10;;;;;;;15.32;12.60;;;;;;;20.54;100.00;99904.33;1749245;80;21022;-41
2021/07/21 07:44:37;;;;;;;19.07;13.78;;;;;;;20.55;100.00;99907.81;1739461;80;21101;-40
2021/07/21 07:47:04;;;;;;;15.05;13.72;;;;;;;20.56;100.00;99906.87;1745856;80;20939;-40
2021/07/21 07:49:31;;;;;;;18.60;13.85;;;;;;;20.71;100.00;99911.53;1709456;81;21126;-39
2021/07/21 07:51:57;;;;;;;13.93;11.73;;;;;;;20.80;100.00;99914.85;1731096;81;21740;-41
2021/07/21 07:54:25;;;;;;;13.30;11.85;;;;;;;20.87;100.00;99922.70;1751786;81;20991;-38
2021/07/21 07:56:51;;;;;;;16.42;12.15;;;;;;;20.87;100.00;99920.07;1753704;81;20964;-39
2021/07/21 07:59:18;;;;;;;20.45;13.35;;;;;;;20.95;100.00;99920.82;1751377;81;20990;-40
2021/07/21 08:01:44;;;;;;;27.02;13.78;;;;;;;21.02;100.00;99922.09;1750890;81;21184;-39
2021/07/21 08:04:11;;;;;;;30.57;13.55;;;;;;;21.16;100.00;99920.25;1750262;81;20948;-40
2021/07/21 08:06:37;;;;;;;23.00;12.85;;;;;;;21.23;100.00;99911.81;1757426;81;20965;-40
2021/07/21 08:09:12;;;;;;;18.10;12.18;;;;;;;21.39;100.00;99905.45;1749666;81;21018;-40
2021/07/21 08:11:33;;;;;;;16.85;13.08;;;;;;;21.53;100.00;99905.27;1724423;82;20903;-40
2021/07/21 08:13:59;;;;;;;17.67;12.53;;;;;;;21.63;100.00;99904.11;1731772;82;21113;-40
2021/07/21 08:16:25;;;;;;;14.43;12.03;;;;;;;21.77;100.00;99901.80;1747066;81;21523;-40
2021/07/21 08:18:52;;;;;;;17.67;13.58;;;;;;;21.92;99.76;99900.31;1778826;80;22196;-39
2021/07/21 08:21:18;;;;;;;19.05;13.83;;;;;;;22.06;99.74;99901.90;1770349;80;21044;-41
2021/07/21 08:23:45;;;;;;;26.02;12.45;;;;;;;22.18;98.70;99893.05;1758843;80;21006;-40
2021/07/21 08:26:12;;;;;;;24.35;13.53;;;;;;;22.29;98.11;99894.86;1737458;81;21103;-40
2021/07/21 08:28:38;;;;;;;20.00;13.13;;;;;;;22.32;97.15;99897.75;1723121;81;20993;-39
2021/07/21 08:31:05;;;;;;;13.55;11.80;;;;;;;22.31;97.11;99902.17;1743663;81;21025;-39
2021/07/21 08:33:32;;;;;;;15.03;11.20;;;;;;;22.23;96.69;99908.05;1744557;81;20939;-40
2021/07/21 08:35:59;;;;;;;15.80;11.45;;;;;;;22.15;96.39;99918.32;1744702;81;20967;-39
2021/07/21 08:38:26;;;;;;;25.60;12.73;;;;;;;22.06;96.19;99909.80;1723988;81;21626;-38
2021/07/21 08:40:54;;;;;;;16.40;11.45;;;;;;;21.98;95.68;99911.69;1733607;80;20997;-40
2021/07/21 08:43:21;;;;;;;30.77;11.80;;;;;;;21.92;95.08;99916.11;1740855;81;21452;-41
2021/07/21 08:45:48;;;;;;;21.57;11.33;;;;;;;21.91;95.13;99917.07;1722659;82;21420;-39
2021/07/21 08:48:14;;;;;;;23.20;11.73;;;;;;;21.90;95.25;99924.12;1718135;82;21034;-40
2021/07/21 08:50:44;;;;;;;13.30;11.90;;;;;;;21.88;95.32;99921.25;1714591;80;21117;-41
2021/07/21 08:53:13;;;;;;;13.72;12.33;;;;;;;21.84;95.68;99915.36;1711461;82;21574;-41
2021/07/21 08:55:39;;;;;;;16.37;14.63;;;;;;;21.79;95.91;99917.02;1736367;82;21124;-40
2021/07/21 08:58:06;;;;;;;16.67;13.40;;;;;;;21.62;95.78;99915.59;1692153;82;21026;-40
2021/07/21 09:00:33;;;;;;;16.95;12.68;;;;;;;21.48;96.54;99910.03;1716779;81;21033;-41
2021/07/21 09:03:01;;;;;;;14.60;12.63;;;;;;;21.42;97.17;99915.75;1747278;81;21776;-40
2021/07/21 09:05:29;;;;;;;14.45;11.83;;;;;;;21.39;97.49;99912.85;1715986;81;21009;-41
2021/07/21 09:07:56;;;;;;;12.03;10.82;;;;;;;21.37;97.94;99913.94;1735903;81;20938;-40
2021/07/21 09:10:23;;;;;;;15.40;10.65;;;;;;;21.42;98.20;99915.75;1751124;81;20970;-40
2021/07/21 09:15:19;;;;;;;13.40;12.05;;;;;;;21.51;98.43;99908.98;1795907;79;22717;-40
2021/07/21 09:18:05;;;;;;;14.80;13.30;;;;;;;21.56;98.64;99905.53;1753892;80;21465;-40
2021/07/21 09:20:34;;;;;;;16.93;13.22;;;;;;;21.78;97.96;99895.58;1732719;81;21132;-39
2021/07/21 09:23:00;;;;;;;15.75;14.00;;;;;;;22.38;98.84;99886.73;1751198;81;20995;-39
2021/07/21 09:25:29;;;;;;;17.98;14.03;;;;;;;23.21;98.94;99881.16;1754225;81;20939;-40
2021/07/21 09:27:58;;;;;;;12.33;11.08;;;;;;;23.91;95.75;99862.31;1725560;81;20971;-38
2021/07/21 09:30:31;;;;;;;12.43;11.25;;;;;;;24.27;90.36;99846.95;1753837;81;20959;-40
2021/07/21 09:33:11;;;;;;;11.20;10.08;;;;;;;24.50;88.12;99854.23;1753901;81;21071;-39
2021/07/21 09:35:47;;;;;;;10.98;9.60;;;;;;;24.60;86.33;99841.52;1754425;81;21449;-40
2021/07/21 09:38:21;;;;;;;15.32;10.98;;;;;;;24.60;81.85;99830.43;1736635;81;20940;-39
2021/07/21 09:40:53;;;;;;;14.68;11.53;;;;;;;24.48;81.11;99822.27;1753622;81;20996;-39
2021/07/21 09:43:24;;;;;;;13.15;11.00;;;;;;;24.45;80.95;99810.63;1754434;81;20900;-38
2021/07/21 09:45:51;;;;;;;14.55;11.33;;;;;;;24.62;80.99;99824.52;1751069;81;21120;-40
2021/07/21 09:48:20;;;;;;;12.85;11.70;;;;;;;25.01;78.78;99824.29;1752797;80;20929;-39
2021/07/21 09:50:48;;;;;;;13.32;11.80;;;;;;;24.92;77.75;99833.88;1750325;81;21031;-39
2021/07/21 09:53:15;;;;;;;13.55;11.63;;;;;;;25.21;80.13;99835.25;1752042;80;21036;-39
2021/07/21 09:55:46;;;;;;;13.72;12.25;;;;;;;25.44;79.64;99863.26;1748133;81;21015;-39
2021/07/21 09:58:19;;;;;;;17.42;13.22;;;;;;;25.43;79.14;99865.09;1727944;82;20993;-39
2021/07/21 10:00:47;;;;;;;16.80;12.73;;;;;;;25.35;78.53;99860.95;1721477;82;21507;-38
2021/07/21 10:03:23;;;;;;;14.25;12.53;;;;;;;25.43;75.29;99855.82;1710211;83;21476;-38
2021/07/21 10:06:10;;;;;;;19.02;13.60;;;;;;;25.28;75.87;99855.40;1722255;82;21575;-39
2021/07/21 10:08:52;;;;;;;12.28;11.08;;;;;;;25.16;77.15;99854.69;1720949;83;20954;-39
2021/07/21 10:11:28;;;;;;;14.05;12.00;;;;;;;25.18;76.78;99862.01;1707516;82;21262;-39
2021/07/21 10:14:06;;;;;;;15.65;14.00;;;;;;;25.22;76.49;99856.78;1725487;82;21047;-39
2021/07/21 10:16:43;;;;;;;14.50;12.18;;;;;;;25.01;76.59;99847.64;1712830;83;21095;-38
2021/07/21 10:19:27;;;;;;;11.18;10.03;;;;;;;24.77;76.70;99846.20;1717599;82;21299;-38
2021/07/21 10:22:02;;;;;;;24.32;11.15;;;;;;;24.95;76.13;99846.37;1717715;82;21573;-39
2021/07/21 10:24:32;;;;;;;16.77;10.93;;;;;;;25.24;75.73;99843.39;1720794;82;20955;-39
2021/07/21 10:26:59;;;;;;;13.00;10.98;;;;;;;25.68;73.51;99850.95;1698139;83;21026;-39
2021/07/21 10:29:26;;;;;;;14.18;10.05;;;;;;;25.73;71.52;99841.23;1719240;83;21116;-38
2021/07/21 10:31:52;;;;;;;15.70;10.30;;;;;;;25.84;72.68;99831.81;1722568;82;20980;-39
2021/07/21 10:34:21;;;;;;;35.13;11.73;;;;;;;25.96;72.05;99823.20;1691515;83;20971;-39
2021/07/21 10:36:48;;;;;;;10.95;9.65;;;;;;;26.35;72.65;99827.06;1717131;82;21193;-39
2021/07/21 10:39:25;;;;;;;10.65;9.68;;;;;;;26.67;70.67;99823.16;1713290;83;20968;-39
2021/07/21 10:41:52;;;;;;;11.55;9.58;;;;;;;26.75;69.61;99814.93;1723878;82;20938;-39
2021/07/21 10:44:20;;;;;;;11.30;10.10;;;;;;;26.95;70.17;99816.51;1668376;83;20994;-39
2021/07/21 10:46:52;;;;;;;11.10;9.93;;;;;;;27.21;68.76;99807.78;1714549;83;21070;-38
2021/07/21 11:00:38;;;;;;;10.93;9.93;;;;;;;27.08;63.19;99825.42;1707980;83;20967;-38
2021/07/21 11:03:26;;;;;;;9.93;7.12;;;;;;;27.20;64.52;99830.02;1677712;83;21158;-38
2021/07/21 11:06:00;;;;;;;21.35;7.72;;;;;;;27.36;64.34;99824.02;1688252;83;20967;-38
2021/07/21 11:08:27;;;;;;;12.23;6.33;;;;;;;27.44;63.43;99819.27;1717743;83;21583;-39
2021/07/21 11:10:56;;;;;;;6.62;5.97;;;;;;;27.45;63.17;99822.27;1693924;83;20944;-39
2021/07/21 11:13:42;;;;;;;9.15;6.05;;;;;;;27.47;62.42;99822.94;1719737;83;21051;-39
2021/07/21 11:16:41;;;;;;;10.70;5.58;;;;;;;27.43;60.80;99821.58;1681982;83;21781;-40
2021/07/21 11:19:48;;;;;;;6.10;5.55;;;;;;;27.51;62.06;99820.82;1675944;83;21004;-39
2021/07/21 11:22:28;;;;;;;6.15;5.62;;;;;;;27.48;60.44;99818.44;1697074;83;20977;-39
2021/07/21 11:25:16;;;;;;;10.88;5.92;;;;;;;27.43;64.12;99812.28;1690194;82;20981;-38
2021/07/21 11:27:49;;;;;;;12.95;5.58;;;;;;;27.65;61.95;99808.80;1688913;83;21496;-40
2021/07/21 11:30:49;;;;;;;8.43;5.58;;;;;;;27.64;61.19;99804.47;1689859;83;22593;-39
2021/07/21 11:33:54;;;;;;;5.97;5.42;;;;;;;27.67;61.22;99796.21;1674592;83;21548;-39
2021/07/21 11:36:46;;;;;;;6.03;5.53;;;;;;;27.97;61.69;99794.87;1684207;83;21012;-40
2021/07/21 11:39:51;;;;;;;7.12;5.53;;;;;;;28.04;60.32;99780.46;1679830;83;20881;-40
2021/07/21 11:42:33;;;;;;;6.45;5.95;;;;;;;27.93;60.93;99780.75;1675380;84;21080;-39
2021/07/21 11:45:09;;;;;;;6.42;5.83;;;;;;;27.77;61.89;99766.84;1673516;84;21927;-39
2021/07/21 11:47:40;;;;;;;5.92;5.42;;;;;;;27.59;60.62;99767.75;1655440;83;21548;-39
2021/07/21 11:50:24;;;;;;;7.50;5.83;;;;;;;27.45;62.57;99763.81;1681538;83;21558;-38
2021/07/21 11:53:06;;;;;;;6.17;5.65;;;;;;;27.46;62.72;99764.15;1691056;83;20971;-39